sensor_id;sensor_type;location;lat;lon;timestamp;pressure;altitude;pressure_sealevel;temperature;humidity
7105;BME280;3594;42.152;24.714;2023-03-01T00:01:10;-23982.84;;;5.95;nan
7105;BME280;3594;42.152;24.714;2023-03-01T00:03:36;-23983.72;;;5.98;nan
7105;BME280;3594;42.152;24.714;2023-03-01T00:06:03;-23984.41;;;6.00;nan
7105;BME280;3594;42.152;24.714;2023-03-01T00:08:29;-23973.75;;;5.62;nan
7105;BME280;3594;42.152;24.714;2023-03-01T00:13:29;-23983.00;;;5.95;nan
7105;BME280;3594;42.152;24.714;2023-03-01T00:15:55;-23984.41;;;6.00;nan
7105;BME280;3594;42.152;24.714;2023-03-01T00:18:20;-23974.59;;;5.65;nan
7105;BME280;3594;42.152;24.714;2023-03-01T00:20:52;-23977.44;;;5.75;nan
7105;BME280;3594;42.152;24.714;2023-03-01T00:23:19;-23984.41;;;6.00;nan
7105;BME280;3594;42.152;24.714;2023-03-01T00:25:44;-23986.13;;;6.06;nan
7105;BME280;3594;42.152;24.714;2023-03-01T00:28:10;-23985.13;;;6.03;nan
7105;BME280;3594;42.152;24.714;2023-03-01T00:30:35;-23985.28;;;6.03;nan
7105;BME280;3594;42.152;24.714;2023-03-01T00:33:01;-23990.09;;;6.20;nan
7105;BME280;3594;42.152;24.714;2023-03-01T00:35:26;-23979.59;;;5.83;nan
7105;BME280;3594;42.152;24.714;2023-03-01T00:37:51;-23986.69;;;6.08;nan
7105;BME280;3594;42.152;24.714;2023-03-01T00:40:23;-23981.88;;;5.91;nan
7105;BME280;3594;42.152;24.714;2023-03-01T00:42:49;-23989.53;;;6.18;nan
7105;BME280;3594;42.152;24.714;2023-03-01T00:45:14;-23982.16;;;5.92;nan
7105;BME280;3594;42.152;24.714;2023-03-01T00:47:40;-23987.53;;;6.11;nan
7105;BME280;3594;42.152;24.714;2023-03-01T00:50:06;-23991.38;;;6.25;nan
7105;BME280;3594;42.152;24.714;2023-03-01T00:52:31;-23987.81;;;6.12;nan
7105;BME280;3594;42.152;24.714;2023-03-01T00:54:57;-23983.13;;;5.96;nan
7105;BME280;3594;42.152;24.714;2023-03-01T00:57:23;-23989.38;;;6.18;nan
7105;BME280;3594;42.152;24.714;2023-03-01T00:59:48;-23975.88;;;5.70;nan
7105;BME280;3594;42.152;24.714;2023-03-01T01:02:14;-23983.28;;;5.96;nan
7105;BME280;3594;42.152;24.714;2023-03-01T01:04:39;-23985.41;;;6.04;nan
7105;BME280;3594;42.152;24.714;2023-03-01T01:07:04;-23988.81;;;6.16;nan
7105;BME280;3594;42.152;24.714;2023-03-01T01:09:31;-23987.81;;;6.12;nan
7105;BME280;3594;42.152;24.714;2023-03-01T01:11:56;-23986.13;;;6.06;nan
7105;BME280;3594;42.152;24.714;2023-03-01T01:14:22;-23987.41;;;6.11;nan
7105;BME280;3594;42.152;24.714;2023-03-01T01:16:47;-23989.69;;;6.19;nan
7105;BME280;3594;42.152;24.714;2023-03-01T01:19:13;-23990.09;;;6.20;nan
7105;BME280;3594;42.152;24.714;2023-03-01T01:21:39;-23981.56;;;5.90;nan
7105;BME280;3594;42.152;24.714;2023-03-01T01:24:08;-23989.53;;;6.18;nan
7105;BME280;3594;42.152;24.714;2023-03-01T01:26:34;-23988.69;;;6.15;nan
7105;BME280;3594;42.152;24.714;2023-03-01T01:29:01;-23980.16;;;5.85;nan
7105;BME280;3594;42.152;24.714;2023-03-01T01:31:27;-23987.97;;;6.13;nan
7105;BME280;3594;42.152;24.714;2023-03-01T01:33:53;-23987.81;;;6.12;nan
7105;BME280;3594;42.152;24.714;2023-03-01T01:36:19;-23985.84;;;6.05;nan
7105;BME280;3594;42.152;24.714;2023-03-01T01:38:45;-23977.31;;;5.75;nan
7105;BME280;3594;42.152;24.714;2023-03-01T01:41:11;-23986.97;;;6.09;nan
7105;BME280;3594;42.152;24.714;2023-03-01T01:43:43;-23991.22;;;6.25;nan
7105;BME280;3594;42.152;24.714;2023-03-01T01:48:50;-23992.94;;;6.31;nan
7105;BME280;3594;42.152;24.714;2023-03-01T01:51:20;-23987.97;;;6.13;nan
7105;BME280;3594;42.152;24.714;2023-03-01T01:53:53;-23983.41;;;5.97;nan
7105;BME280;3594;42.152;24.714;2023-03-01T01:56:20;-23977.75;;;5.76;nan
7105;BME280;3594;42.152;24.714;2023-03-01T01:58:47;-23982.84;;;5.95;nan
7105;BME280;3594;42.152;24.714;2023-03-01T02:01:13;-23982.84;;;5.95;nan
7105;BME280;3594;42.152;24.714;2023-03-01T02:03:39;-23990.38;;;6.21;nan
7105;BME280;3594;42.152;24.714;2023-03-01T02:06:28;-23980.16;;;5.85;nan
7105;BME280;3594;42.152;24.714;2023-03-01T02:09:02;-23984.41;;;6.00;nan
7105;BME280;3594;42.152;24.714;2023-03-01T02:11:31;-23980.16;;;5.85;nan
7105;BME280;3594;42.152;24.714;2023-03-01T02:13:57;-23981.72;;;5.91;nan
7105;BME280;3594;42.152;24.714;2023-03-01T02:16:23;-23989.53;;;6.18;nan
7105;BME280;3594;42.152;24.714;2023-03-01T02:18:49;-23982.72;;;5.94;nan
7105;BME280;3594;42.152;24.714;2023-03-01T02:23:53;-23985.41;;;6.04;nan
7105;BME280;3594;42.152;24.714;2023-03-01T02:26:25;-23986.56;;;6.08;nan
7105;BME280;3594;42.152;24.714;2023-03-01T02:28:53;-23989.69;;;6.19;nan
7105;BME280;3594;42.152;24.714;2023-03-01T02:31:20;-23989.53;;;6.18;nan
7105;BME280;3594;42.152;24.714;2023-03-01T02:34:06;-23987.25;;;6.10;nan
7105;BME280;3594;42.152;24.714;2023-03-01T02:36:36;-23984.97;;;6.02;nan
7105;BME280;3594;42.152;24.714;2023-03-01T02:39:05;-23978.31;;;5.78;nan
7105;BME280;3594;42.152;24.714;2023-03-01T02:41:35;-23978.31;;;5.78;nan
7105;BME280;3594;42.152;24.714;2023-03-01T02:44:01;-23979.59;;;5.83;nan
7105;BME280;3594;42.152;24.714;2023-03-01T02:46:27;-23974.03;;;5.63;nan
7105;BME280;3594;42.152;24.714;2023-03-01T02:48:55;-23980.59;;;5.87;nan
7105;BME280;3594;42.152;24.714;2023-03-01T02:56:39;-23978.44;;;5.79;nan
7105;BME280;3594;42.152;24.714;2023-03-01T02:59:06;-23981.28;;;5.89;nan
7105;BME280;3594;42.152;24.714;2023-03-01T03:01:31;-23979.00;;;5.81;nan
7105;BME280;3594;42.152;24.714;2023-03-01T03:04:07;-23982.84;;;5.95;nan
7105;BME280;3594;42.152;24.714;2023-03-01T03:06:33;-23977.03;;;5.74;nan
7105;BME280;3594;42.152;24.714;2023-03-01T03:08:59;-23980.72;;;5.87;nan
7105;BME280;3594;42.152;24.714;2023-03-01T03:11:25;-23982.72;;;5.94;nan
7105;BME280;3594;42.152;24.714;2023-03-01T03:13:50;-23976.16;;;5.71;nan
7105;BME280;3594;42.152;24.714;2023-03-01T03:16:17;-23976.59;;;5.72;nan
7105;BME280;3594;42.152;24.714;2023-03-01T03:18:43;-23982.84;;;5.95;nan
7105;BME280;3594;42.152;24.714;2023-03-01T03:21:09;-23974.19;;;5.64;nan
7105;BME280;3594;42.152;24.714;2023-03-01T03:23:36;-23975.59;;;5.69;nan
7105;BME280;3594;42.152;24.714;2023-03-01T03:26:03;-23986.56;;;6.08;nan
7105;BME280;3594;42.152;24.714;2023-03-01T03:28:30;-23984.97;;;6.02;nan
7105;BME280;3594;42.152;24.714;2023-03-01T03:30:56;-23987.69;;;6.12;nan
7105;BME280;3594;42.152;24.714;2023-03-01T03:33:21;-23987.25;;;6.10;nan
7105;BME280;3594;42.152;24.714;2023-03-01T03:35:48;-23986.25;;;6.07;nan
7105;BME280;3594;42.152;24.714;2023-03-01T03:38:17;-23988.81;;;6.16;nan
7105;BME280;3594;42.152;24.714;2023-03-01T03:40:59;-23987.53;;;6.11;nan
7105;BME280;3594;42.152;24.714;2023-03-01T03:43:29;-23978.31;;;5.78;nan
7105;BME280;3594;42.152;24.714;2023-03-01T03:45:55;-23985.84;;;6.05;nan
7105;BME280;3594;42.152;24.714;2023-03-01T03:48:22;-23963.09;;;5.24;nan
7105;BME280;3594;42.152;24.714;2023-03-01T03:50:50;-23988.97;;;6.16;nan
7105;BME280;3594;42.152;24.714;2023-03-01T03:53:16;-23986.84;;;6.09;nan
7105;BME280;3594;42.152;24.714;2023-03-01T03:55:42;-23983.84;;;5.98;nan
7105;BME280;3594;42.152;24.714;2023-03-01T03:58:10;-23986.69;;;6.08;nan
7105;BME280;3594;42.152;24.714;2023-03-01T04:00:40;-23984.69;;;6.01;nan
7105;BME280;3594;42.152;24.714;2023-03-01T04:03:07;-23977.44;;;5.75;nan
7105;BME280;3594;42.152;24.714;2023-03-01T04:05:33;-23983.84;;;5.98;nan
7105;BME280;3594;42.152;24.714;2023-03-01T04:07:59;-23979.16;;;5.82;nan
7105;BME280;3594;42.152;24.714;2023-03-01T04:10:29;-23973.03;;;5.60;nan
7105;BME280;3594;42.152;24.714;2023-03-01T04:12:55;-23980.16;;;5.85;nan
7105;BME280;3594;42.152;24.714;2023-03-01T04:15:24;-23970.47;;;5.51;nan
7105;BME280;3594;42.152;24.714;2023-03-01T04:17:52;-23978.16;;;5.78;nan
7105;BME280;3594;42.152;24.714;2023-03-01T04:20:21;-23978.16;;;5.78;nan
7105;BME280;3594;42.152;24.714;2023-03-01T04:23:02;-23974.91;;;5.66;nan
7105;BME280;3594;42.152;24.714;2023-03-01T04:25:39;-23976.47;;;5.72;nan
7105;BME280;3594;42.152;24.714;2023-03-01T04:28:06;-23979.88;;;5.84;nan
7105;BME280;3594;42.152;24.714;2023-03-01T04:30:31;-23977.44;;;5.75;nan
7105;BME280;3594;42.152;24.714;2023-03-01T04:33:10;-23980.59;;;5.87;nan
7105;BME280;3594;42.152;24.714;2023-03-01T04:35:37;-23978.03;;;5.77;nan
7105;BME280;3594;42.152;24.714;2023-03-01T04:38:04;-23979.00;;;5.81;nan
7105;BME280;3594;42.152;24.714;2023-03-01T04:40:29;-23970.47;;;5.51;nan
7105;BME280;3594;42.152;24.714;2023-03-01T04:42:55;-23967.94;;;5.42;nan
7105;BME280;3594;42.152;24.714;2023-03-01T04:45:21;-23973.03;;;5.60;nan
7105;BME280;3594;42.152;24.714;2023-03-01T04:47:46;-23976.88;;;5.73;nan
7105;BME280;3594;42.152;24.714;2023-03-01T04:50:14;-23977.88;;;5.77;nan
7105;BME280;3594;42.152;24.714;2023-03-01T04:52:42;-23963.09;;;5.24;nan
7105;BME280;3594;42.152;24.714;2023-03-01T04:55:08;-23972.91;;;5.59;nan
7105;BME280;3594;42.152;24.714;2023-03-01T04:57:33;-23959.13;;;5.10;nan
7105;BME280;3594;42.152;24.714;2023-03-01T04:59:59;-23968.63;;;5.44;nan
7105;BME280;3594;42.152;24.714;2023-03-01T05:02:24;-23972.47;;;5.58;nan
7105;BME280;3594;42.152;24.714;2023-03-01T05:04:50;-23967.22;;;5.39;nan
7105;BME280;3594;42.152;24.714;2023-03-01T05:07:15;-23972.91;;;5.59;nan
7105;BME280;3594;42.152;24.714;2023-03-01T05:09:47;-23975.88;;;5.70;nan
7105;BME280;3594;42.152;24.714;2023-03-01T05:12:14;-23974.47;;;5.65;nan
7105;BME280;3594;42.152;24.714;2023-03-01T05:14:40;-23965.09;;;5.31;nan
7105;BME280;3594;42.152;24.714;2023-03-01T05:17:07;-23965.38;;;5.32;nan
7105;BME280;3594;42.152;24.714;2023-03-01T05:19:33;-23970.34;;;5.50;nan
7105;BME280;3594;42.152;24.714;2023-03-01T05:21:58;-23963.38;;;5.25;nan
7105;BME280;3594;42.152;24.714;2023-03-01T05:24:28;-23972.63;;;5.58;nan
7105;BME280;3594;42.152;24.714;2023-03-01T05:26:54;-23960.97;;;5.17;nan
7105;BME280;3594;42.152;24.714;2023-03-01T05:29:23;-23961.81;;;5.20;nan
7105;BME280;3594;42.152;24.714;2023-03-01T05:31:53;-23961.38;;;5.18;nan
7105;BME280;3594;42.152;24.714;2023-03-01T05:34:32;-23973.03;;;5.60;nan
7105;BME280;3594;42.152;24.714;2023-03-01T05:36:59;-23965.22;;;5.32;nan
7105;BME280;3594;42.152;24.714;2023-03-01T05:39:26;-23965.09;;;5.31;nan
7105;BME280;3594;42.152;24.714;2023-03-01T05:41:54;-23968.78;;;5.45;nan
7105;BME280;3594;42.152;24.714;2023-03-01T05:44:20;-23977.88;;;5.77;nan
7105;BME280;3594;42.152;24.714;2023-03-01T05:46:45;-23976.88;;;5.73;nan
7105;BME280;3594;42.152;24.714;2023-03-01T05:49:11;-23978.88;;;5.81;nan
7105;BME280;3594;42.152;24.714;2023-03-01T05:51:39;-23978.59;;;5.79;nan
7105;BME280;3594;42.152;24.714;2023-03-01T05:54:04;-23976.75;;;5.73;nan
7105;BME280;3594;42.152;24.714;2023-03-01T05:56:33;-23979.00;;;5.81;nan
7105;BME280;3594;42.152;24.714;2023-03-01T05:59:00;-23980.59;;;5.87;nan
7105;BME280;3594;42.152;24.714;2023-03-01T06:01:25;-23981.44;;;5.90;nan
7105;BME280;3594;42.152;24.714;2023-03-01T06:03:51;-23977.88;;;5.77;nan
7105;BME280;3594;42.152;24.714;2023-03-01T06:06:16;-23970.47;;;5.51;nan
7105;BME280;3594;42.152;24.714;2023-03-01T06:08:42;-23982.28;;;5.93;nan
7105;BME280;3594;42.152;24.714;2023-03-01T06:11:07;-23985.84;;;6.05;nan
7105;BME280;3594;42.152;24.714;2023-03-01T06:13:32;-23973.75;;;5.62;nan
7105;BME280;3594;42.152;24.714;2023-03-01T06:15:58;-23987.53;;;6.11;nan
7105;BME280;3594;42.152;24.714;2023-03-01T06:18:24;-23985.28;;;6.03;nan
7105;BME280;3594;42.152;24.714;2023-03-01T06:20:53;-23982.28;;;5.93;nan
7105;BME280;3594;42.152;24.714;2023-03-01T06:23:19;-23988.25;;;6.14;nan
7105;BME280;3594;42.152;24.714;2023-03-01T06:25:45;-23984.97;;;6.02;nan
7105;BME280;3594;42.152;24.714;2023-03-01T06:28:10;-23976.47;;;5.72;nan
7105;BME280;3594;42.152;24.714;2023-03-01T06:30:35;-23984.41;;;6.00;nan
7105;BME280;3594;42.152;24.714;2023-03-01T06:33:01;-23985.97;;;6.06;nan
7105;BME280;3594;42.152;24.714;2023-03-01T06:35:29;-23979.16;;;5.82;nan
7105;BME280;3594;42.152;24.714;2023-03-01T06:37:57;-23990.38;;;6.21;nan
7105;BME280;3594;42.152;24.714;2023-03-01T06:40:23;-23989.81;;;6.19;nan
7105;BME280;3594;42.152;24.714;2023-03-01T06:42:49;-23988.81;;;6.16;nan
7105;BME280;3594;42.152;24.714;2023-03-01T06:45:16;-23988.69;;;6.15;nan
7105;BME280;3594;42.152;24.714;2023-03-01T06:47:42;-23984.56;;;6.01;nan
7105;BME280;3594;42.152;24.714;2023-03-01T06:50:08;-23990.94;;;6.24;nan
7105;BME280;3594;42.152;24.714;2023-03-01T06:52:33;-23989.09;;;6.17;nan
7105;BME280;3594;42.152;24.714;2023-03-01T06:54:59;-23983.84;;;5.98;nan
7105;BME280;3594;42.152;24.714;2023-03-01T06:57:25;-23995.78;;;6.41;nan
7105;BME280;3594;42.152;24.714;2023-03-01T06:59:50;-23998.19;;;6.49;nan
7105;BME280;3594;42.152;24.714;2023-03-01T07:02:16;-23998.06;;;6.49;nan
7105;BME280;3594;42.152;24.714;2023-03-01T07:04:42;-23998.47;;;6.50;nan
7105;BME280;3594;42.152;24.714;2023-03-01T07:07:08;-23991.81;;;6.27;nan
7105;BME280;3594;42.152;24.714;2023-03-01T07:09:34;-24000.59;;;6.58;nan
7105;BME280;3594;42.152;24.714;2023-03-01T07:11:59;-23997.75;;;6.48;nan
7105;BME280;3594;42.152;24.714;2023-03-01T07:14:25;-24000.47;;;6.57;nan
7105;BME280;3594;42.152;24.714;2023-03-01T07:16:54;-23998.63;;;6.51;nan
7105;BME280;3594;42.152;24.714;2023-03-01T07:19:19;-24003.88;;;6.70;nan
7105;BME280;3594;42.152;24.714;2023-03-01T07:21:46;-23999.47;;;6.54;nan
7105;BME280;3594;42.152;24.714;2023-03-01T07:24:12;-23986.69;;;6.08;nan
7105;BME280;3594;42.152;24.714;2023-03-01T07:26:37;-24005.56;;;6.76;nan
7105;BME280;3594;42.152;24.714;2023-03-01T07:29:05;-24004.56;;;6.72;nan
7105;BME280;3594;42.152;24.714;2023-03-01T07:31:31;-24007.13;;;6.81;nan
7105;BME280;3594;42.152;24.714;2023-03-01T07:33:57;-24005.16;;;6.74;nan
7105;BME280;3594;42.152;24.714;2023-03-01T07:36:23;-24006.84;;;6.80;nan
7105;BME280;3594;42.152;24.714;2023-03-01T07:38:49;-24013.38;;;7.03;nan
7105;BME280;3594;42.152;24.714;2023-03-01T07:41:14;-24015.66;;;7.12;nan
7105;BME280;3594;42.152;24.714;2023-03-01T07:43:39;-24020.47;;;7.29;nan
7105;BME280;3594;42.152;24.714;2023-03-01T07:46:05;-24019.91;;;7.27;nan
7105;BME280;3594;42.152;24.714;2023-03-01T07:48:32;-24026.41;;;7.50;nan
7105;BME280;3594;42.152;24.714;2023-03-01T07:50:59;-24025.28;;;7.46;nan
7105;BME280;3594;42.152;24.714;2023-03-01T07:53:24;-24024.56;;;7.43;nan
7105;BME280;3594;42.152;24.714;2023-03-01T07:55:50;-24024.44;;;7.43;nan
7105;BME280;3594;42.152;24.714;2023-03-01T07:58:25;-24015.34;;;7.10;nan
7105;BME280;3594;42.152;24.714;2023-03-01T08:00:50;-24023.59;;;7.40;nan
7105;BME280;3594;42.152;24.714;2023-03-01T08:03:15;-24028.25;;;7.57;nan
7105;BME280;3594;42.152;24.714;2023-03-01T08:05:41;-24038.88;;;7.94;nan
7105;BME280;3594;42.152;24.714;2023-03-01T08:08:06;-24035.78;;;7.83;nan
7105;BME280;3594;42.152;24.714;2023-03-01T08:10:31;-24038.59;;;7.93;nan
7105;BME280;3594;42.152;24.714;2023-03-01T08:12:57;-24031.53;;;7.68;nan
7105;BME280;3594;42.152;24.714;2023-03-01T08:15:22;-24022.03;;;7.34;nan
7105;BME280;3594;42.152;24.714;2023-03-01T08:17:49;-24025.44;;;7.46;nan
7105;BME280;3594;42.152;24.714;2023-03-01T08:20:15;-24016.22;;;7.14;nan
7105;BME280;3594;42.152;24.714;2023-03-01T08:22:41;-24019.75;;;7.26;nan
7105;BME280;3594;42.152;24.714;2023-03-01T08:25:07;-24022.31;;;7.35;nan
7105;BME280;3594;42.152;24.714;2023-03-01T08:27:33;-24023.00;;;7.38;nan
7105;BME280;3594;42.152;24.714;2023-03-01T08:29:58;-24016.22;;;7.14;nan
7105;BME280;3594;42.152;24.714;2023-03-01T08:32:24;-24023.31;;;7.39;nan
7105;BME280;3594;42.152;24.714;2023-03-01T08:34:49;-24022.31;;;7.35;nan
7105;BME280;3594;42.152;24.714;2023-03-01T08:37:15;-24028.13;;;7.56;nan
7105;BME280;3594;42.152;24.714;2023-03-01T08:39:40;-24026.69;;;7.51;nan
7105;BME280;3594;42.152;24.714;2023-03-01T08:42:05;-24035.91;;;7.84;nan
7105;BME280;3594;42.152;24.714;2023-03-01T08:44:31;-24036.63;;;7.86;nan
7105;BME280;3594;42.152;24.714;2023-03-01T08:46:56;-24040.72;;;8.01;nan
7105;BME280;3594;42.152;24.714;2023-03-01T08:49:22;-24041.72;;;8.05;nan
7105;BME280;3594;42.152;24.714;2023-03-01T08:51:49;-24042.00;;;8.06;nan
7105;BME280;3594;42.152;24.714;2023-03-01T08:54:17;-24041.56;;;8.04;nan
7105;BME280;3594;42.152;24.714;2023-03-01T08:56:43;-24023.59;;;7.40;nan
7105;BME280;3594;42.152;24.714;2023-03-01T08:59:11;-24039.59;;;7.97;nan
7105;BME280;3594;42.152;24.714;2023-03-01T09:01:36;-24044.84;;;8.16;nan
7105;BME280;3594;42.152;24.714;2023-03-01T09:04:02;-24038.03;;;7.91;nan
7105;BME280;3594;42.152;24.714;2023-03-01T09:06:31;-24033.22;;;7.74;nan
7105;BME280;3594;42.152;24.714;2023-03-01T09:08:58;-24028.41;;;7.57;nan
7105;BME280;3594;42.152;24.714;2023-03-01T09:11:24;-24028.53;;;7.58;nan
7105;BME280;3594;42.152;24.714;2023-03-01T09:13:49;-24024.72;;;7.44;nan
7105;BME280;3594;42.152;24.714;2023-03-01T09:16:17;-24034.63;;;7.79;nan
7105;BME280;3594;42.152;24.714;2023-03-01T09:18:44;-24029.53;;;7.61;nan
7105;BME280;3594;42.152;24.714;2023-03-01T09:21:15;-24028.25;;;7.57;nan
7105;BME280;3594;42.152;24.714;2023-03-01T09:23:43;-24034.34;;;7.78;nan
7105;BME280;3594;42.152;24.714;2023-03-01T09:26:11;-24035.34;;;7.82;nan
7105;BME280;3594;42.152;24.714;2023-03-01T09:28:37;-24025.00;;;7.45;nan
7105;BME280;3594;42.152;24.714;2023-03-01T09:31:03;-24034.34;;;7.78;nan
7105;BME280;3594;42.152;24.714;2023-03-01T09:33:31;-24029.97;;;7.63;nan
7105;BME280;3594;42.152;24.714;2023-03-01T09:36:02;-24044.84;;;8.16;nan
7105;BME280;3594;42.152;24.714;2023-03-01T09:38:28;-24045.81;;;8.19;nan
7105;BME280;3594;42.152;24.714;2023-03-01T09:40:54;-24029.81;;;7.62;nan
7105;BME280;3594;42.152;24.714;2023-03-01T09:43:29;-24040.59;;;8.00;nan
7105;BME280;3594;42.152;24.714;2023-03-01T09:46:00;-24037.75;;;7.90;nan
7105;BME280;3594;42.152;24.714;2023-03-01T09:48:33;-24042.72;;;8.08;nan
7105;BME280;3594;42.152;24.714;2023-03-01T09:51:08;-24037.03;;;7.88;nan
7105;BME280;3594;42.152;24.714;2023-03-01T09:53:37;-24050.66;;;8.36;nan
7105;BME280;3594;42.152;24.714;2023-03-01T10:01:28;-24055.03;;;8.52;nan
7105;BME280;3594;42.152;24.714;2023-03-01T10:06:31;-24033.78;;;7.76;nan
7105;BME280;3594;42.152;24.714;2023-03-01T10:09:02;-24036.19;;;7.85;nan
7105;BME280;3594;42.152;24.714;2023-03-01T10:11:32;-24046.69;;;8.22;nan
7105;BME280;3594;42.152;24.714;2023-03-01T10:14:30;-24045.69;;;8.19;nan
7105;BME280;3594;42.152;24.714;2023-03-01T10:19:43;-24044.69;;;8.15;nan
7105;BME280;3594;42.152;24.714;2023-03-01T10:24:43;-24040.59;;;8.00;nan
7105;BME280;3594;42.152;24.714;2023-03-01T10:27:17;-24028.25;;;7.57;nan
7105;BME280;3594;42.152;24.714;2023-03-01T10:32:17;-24035.91;;;7.84;nan
7105;BME280;3594;42.152;24.714;2023-03-01T10:34:43;-24042.28;;;8.07;nan
7105;BME280;3594;42.152;24.714;2023-03-01T10:39:34;-24036.06;;;7.84;nan
7105;BME280;3594;42.152;24.714;2023-03-01T10:42:05;-24037.75;;;7.90;nan
7105;BME280;3594;42.152;24.714;2023-03-01T10:44:44;-24036.47;;;7.86;nan
7105;BME280;3594;42.152;24.714;2023-03-01T10:49:38;-24031.38;;;7.68;nan
7105;BME280;3594;42.152;24.714;2023-03-01T10:52:19;-24022.16;;;7.35;nan
7105;BME280;3594;42.152;24.714;2023-03-01T10:54:53;-24028.41;;;7.57;nan
7105;BME280;3594;42.152;24.714;2023-03-01T10:57:31;-24028.25;;;7.57;nan
7105;BME280;3594;42.152;24.714;2023-03-01T11:00:15;-24023.16;;;7.38;nan
7105;BME280;3594;42.152;24.714;2023-03-01T11:05:25;-24029.25;;;7.60;nan
7105;BME280;3594;42.152;24.714;2023-03-01T11:07:59;-24028.41;;;7.57;nan
7105;BME280;3594;42.152;24.714;2023-03-01T11:10:30;-24019.91;;;7.27;nan
7105;BME280;3594;42.152;24.714;2023-03-01T11:15:33;-24028.13;;;7.56;nan
7105;BME280;3594;42.152;24.714;2023-03-01T11:17:58;-24026.00;;;7.48;nan
7105;BME280;3594;42.152;24.714;2023-03-01T11:23:14;-24037.63;;;7.90;nan
7105;BME280;3594;42.152;24.714;2023-03-01T11:25:44;-24035.06;;;7.81;nan
7105;BME280;3594;42.152;24.714;2023-03-01T11:28:15;-24037.88;;;7.91;nan
7105;BME280;3594;42.152;24.714;2023-03-01T11:36:01;-24049.94;;;8.34;nan
7105;BME280;3594;42.152;24.714;2023-03-01T11:38:29;-24046.25;;;8.21;nan
7105;BME280;3594;42.152;24.714;2023-03-01T11:41:04;-24035.47;;;7.82;nan
7105;BME280;3594;42.152;24.714;2023-03-01T11:49:03;-24050.50;;;8.36;nan
7105;BME280;3594;42.152;24.714;2023-03-01T12:00:04;-24051.06;;;8.38;nan
7105;BME280;3594;42.152;24.714;2023-03-01T12:07:56;-24050.94;;;8.37;nan
7105;BME280;3594;42.152;24.714;2023-03-01T12:10:31;-24044.00;;;8.13;nan
7105;BME280;3594;42.152;24.714;2023-03-01T12:15:36;-24050.22;;;8.35;nan
7105;BME280;3594;42.152;24.714;2023-03-01T12:31:39;-24055.03;;;8.52;nan
7105;BME280;3594;42.152;24.714;2023-03-01T12:43:29;-24046.53;;;8.22;nan
7105;BME280;3594;42.152;24.714;2023-03-01T12:46:10;-24044.13;;;8.13;nan
7105;BME280;3594;42.152;24.714;2023-03-01T12:51:36;-24045.69;;;8.19;nan
7105;BME280;3594;42.152;24.714;2023-03-01T12:54:16;-24041.84;;;8.05;nan
7105;BME280;3594;42.152;24.714;2023-03-01T12:56:45;-24049.66;;;8.33;nan
7105;BME280;3594;42.152;24.714;2023-03-01T13:01:51;-24047.53;;;8.25;nan
7105;BME280;3594;42.152;24.714;2023-03-01T13:04:38;-24049.66;;;8.33;nan
7105;BME280;3594;42.152;24.714;2023-03-01T13:07:32;-24048.09;;;8.27;nan
7105;BME280;3594;42.152;24.714;2023-03-01T13:17:48;-24039.44;;;7.96;nan
7105;BME280;3594;42.152;24.714;2023-03-01T13:20:17;-24047.38;;;8.25;nan
7105;BME280;3594;42.152;24.714;2023-03-01T13:22:45;-24044.00;;;8.13;nan
7105;BME280;3594;42.152;24.714;2023-03-01T13:25:17;-24050.22;;;8.35;nan
7105;BME280;3594;42.152;24.714;2023-03-01T13:27:44;-24052.19;;;8.42;nan
7105;BME280;3594;42.152;24.714;2023-03-01T13:41:03;-24047.94;;;8.27;nan
7105;BME280;3594;42.152;24.714;2023-03-01T13:43:35;-24039.88;;;7.98;nan
7105;BME280;3594;42.152;24.714;2023-03-01T13:46:08;-24047.38;;;8.25;nan
7105;BME280;3594;42.152;24.714;2023-03-01T13:48:37;-24036.63;;;7.86;nan
7105;BME280;3594;42.152;24.714;2023-03-01T13:51:09;-24039.16;;;7.95;nan
7105;BME280;3594;42.152;24.714;2023-03-01T13:53:46;-24041.84;;;8.05;nan
7105;BME280;3594;42.152;24.714;2023-03-01T13:56:19;-24028.97;;;7.59;nan
7105;BME280;3594;42.152;24.714;2023-03-01T13:59:03;-24039.03;;;7.95;nan
7105;BME280;3594;42.152;24.714;2023-03-01T14:01:35;-24029.81;;;7.62;nan
7105;BME280;3594;42.152;24.714;2023-03-01T14:04:01;-24033.50;;;7.75;nan
7105;BME280;3594;42.152;24.714;2023-03-01T14:06:29;-24034.91;;;7.80;nan
7105;BME280;3594;42.152;24.714;2023-03-01T14:09:25;-24035.63;;;7.83;nan
7105;BME280;3594;42.152;24.714;2023-03-01T14:17:23;-24033.50;;;7.75;nan
7105;BME280;3594;42.152;24.714;2023-03-01T14:20:13;-24024.28;;;7.42;nan
7105;BME280;3594;42.152;24.714;2023-03-01T14:22:41;-24026.56;;;7.50;nan
7105;BME280;3594;42.152;24.714;2023-03-01T14:25:20;-24019.63;;;7.26;nan
7105;BME280;3594;42.152;24.714;2023-03-01T14:30:36;-24025.13;;;7.45;nan
7105;BME280;3594;42.152;24.714;2023-03-01T14:33:06;-24023.59;;;7.40;nan
7105;BME280;3594;42.152;24.714;2023-03-01T14:35:42;-24027.69;;;7.54;nan
7105;BME280;3594;42.152;24.714;2023-03-01T14:38:20;-24018.19;;;7.21;nan
7105;BME280;3594;42.152;24.714;2023-03-01T14:40:48;-24013.09;;;7.02;nan
7105;BME280;3594;42.152;24.714;2023-03-01T14:43:20;-24012.09;;;6.99;nan
7105;BME280;3594;42.152;24.714;2023-03-01T14:45:49;-24014.22;;;7.06;nan
7105;BME280;3594;42.152;24.714;2023-03-01T14:48:15;-24022.16;;;7.35;nan
7105;BME280;3594;42.152;24.714;2023-03-01T14:50:42;-24022.03;;;7.34;nan
7105;BME280;3594;42.152;24.714;2023-03-01T14:53:20;-24019.91;;;7.27;nan
7105;BME280;3594;42.152;24.714;2023-03-01T14:55:50;-24009.69;;;6.90;nan
7105;BME280;3594;42.152;24.714;2023-03-01T14:58:20;-24017.06;;;7.17;nan
7105;BME280;3594;42.152;24.714;2023-03-01T15:01:00;-24017.78;;;7.19;nan
7105;BME280;3594;42.152;24.714;2023-03-01T15:03:37;-24021.16;;;7.31;nan
7105;BME280;3594;42.152;24.714;2023-03-01T15:06:05;-24011.66;;;6.97;nan
7105;BME280;3594;42.152;24.714;2023-03-01T15:08:31;-24018.34;;;7.21;nan
7105;BME280;3594;42.152;24.714;2023-03-01T15:11:22;-24013.38;;;7.03;nan
7105;BME280;3594;42.152;24.714;2023-03-01T15:13:51;-24021.31;;;7.32;nan
7105;BME280;3594;42.152;24.714;2023-03-01T15:16:17;-24021.31;;;7.32;nan
7105;BME280;3594;42.152;24.714;2023-03-01T15:18:46;-24019.47;;;7.25;nan
7105;BME280;3594;42.152;24.714;2023-03-01T15:21:17;-24024.56;;;7.43;nan
7105;BME280;3594;42.152;24.714;2023-03-01T15:23:52;-24023.00;;;7.38;nan
7105;BME280;3594;42.152;24.714;2023-03-01T15:26:29;-24023.59;;;7.40;nan
7105;BME280;3594;42.152;24.714;2023-03-01T15:28:57;-24005.44;;;6.75;nan
7105;BME280;3594;42.152;24.714;2023-03-01T15:31:28;-24010.25;;;6.92;nan
7105;BME280;3594;42.152;24.714;2023-03-01T15:34:09;-24008.13;;;6.85;nan
7105;BME280;3594;42.152;24.714;2023-03-01T15:36:42;-24019.91;;;7.27;nan
7105;BME280;3594;42.152;24.714;2023-03-01T15:39:26;-24020.47;;;7.29;nan
7105;BME280;3594;42.152;24.714;2023-03-01T15:41:52;-24019.19;;;7.24;nan
7105;BME280;3594;42.152;24.714;2023-03-01T15:44:32;-24018.19;;;7.21;nan